sensor_id;sensor_type;location;lat;lon;timestamp;temperature;humidity
51619;DHT22;38518;53.164;5.430;2023-10-13T00:02:11;13.70;99.90
51619;DHT22;38518;53.164;5.430;2023-10-13T00:04:39;13.70;99.90
51619;DHT22;38518;53.164;5.430;2023-10-13T00:07:05;13.80;99.90
51619;DHT22;38518;53.164;5.430;2023-10-13T00:09:34;13.90;99.90
51619;DHT22;38518;53.164;5.430;2023-10-13T00:12:04;13.90;99.90
51619;DHT22;38518;53.164;5.430;2023-10-13T00:14:31;14.00;99.90
51619;DHT22;38518;53.164;5.430;2023-10-13T00:17:01;14.10;99.90
51619;DHT22;38518;53.164;5.430;2023-10-13T00:19:36;14.20;99.90
51619;DHT22;38518;53.164;5.430;2023-10-13T00:22:13;14.30;99.90
51619;DHT22;38518;53.164;5.430;2023-10-13T00:24:43;14.50;99.90
51619;DHT22;38518;53.164;5.430;2023-10-13T00:27:19;14.60;99.90
51619;DHT22;38518;53.164;5.430;2023-10-13T00:30:12;14.70;99.90
51619;DHT22;38518;53.164;5.430;2023-10-13T00:32:59;14.80;99.90
51619;DHT22;38518;53.164;5.430;2023-10-13T00:35:29;14.90;99.90
51619;DHT22;38518;53.164;5.430;2023-10-13T00:38:01;15.00;99.90
51619;DHT22;38518;53.164;5.430;2023-10-13T00:40:39;14.80;99.90
51619;DHT22;38518;53.164;5.430;2023-10-13T00:43:05;15.10;99.90
51619;DHT22;38518;53.164;5.430;2023-10-13T00:45:56;15.20;99.90
51619;DHT22;38518;53.164;5.430;2023-10-13T00:48:32;15.30;99.90
51619;DHT22;38518;53.164;5.430;2023-10-13T00:51:04;15.30;99.90
51619;DHT22;38518;53.164;5.430;2023-10-13T00:53:33;15.30;99.90
51619;DHT22;38518;53.164;5.430;2023-10-13T00:56:02;15.40;99.90
51619;DHT22;38518;53.164;5.430;2023-10-13T00:58:43;15.50;99.90
51619;DHT22;38518;53.164;5.430;2023-10-13T01:01:09;15.50;99.90
51619;DHT22;38518;53.164;5.430;2023-10-13T01:03:51;15.50;99.90
51619;DHT22;38518;53.164;5.430;2023-10-13T01:06:22;15.50;99.90
51619;DHT22;38518;53.164;5.430;2023-10-13T01:11:40;15.60;99.90
51619;DHT22;38518;53.164;5.430;2023-10-13T01:14:08;15.60;99.90
51619;DHT22;38518;53.164;5.430;2023-10-13T01:16:39;15.60;99.90
51619;DHT22;38518;53.164;5.430;2023-10-13T01:19:15;15.70;99.90
51619;DHT22;38518;53.164;5.430;2023-10-13T01:21:46;15.70;99.90
51619;DHT22;38518;53.164;5.430;2023-10-13T01:24:13;15.70;99.90
51619;DHT22;38518;53.164;5.430;2023-10-13T01:26:44;15.70;99.90
51619;DHT22;38518;53.164;5.430;2023-10-13T01:29:10;15.70;99.90
51619;DHT22;38518;53.164;5.430;2023-10-13T01:31:44;15.80;99.90
51619;DHT22;38518;53.164;5.430;2023-10-13T01:34:17;15.80;99.90
51619;DHT22;38518;53.164;5.430;2023-10-13T01:36:56;15.80;99.90
51619;DHT22;38518;53.164;5.430;2023-10-13T01:39:29;15.90;99.90
51619;DHT22;38518;53.164;5.430;2023-10-13T01:41:58;15.80;99.90
51619;DHT22;38518;53.164;5.430;2023-10-13T01:44:25;15.80;99.90
51619;DHT22;38518;53.164;5.430;2023-10-13T01:47:00;15.90;99.90
51619;DHT22;38518;53.164;5.430;2023-10-13T01:49:32;15.90;99.90
51619;DHT22;38518;53.164;5.430;2023-10-13T01:52:10;15.90;99.90
51619;DHT22;38518;53.164;5.430;2023-10-13T01:54:40;15.90;99.90
51619;DHT22;38518;53.164;5.430;2023-10-13T01:57:07;15.90;99.90
51619;DHT22;38518;53.164;5.430;2023-10-13T01:59:33;15.90;99.90
51619;DHT22;38518;53.164;5.430;2023-10-13T02:01:59;15.90;99.90
51619;DHT22;38518;53.164;5.430;2023-10-13T02:04:27;15.90;99.90
51619;DHT22;38518;53.164;5.430;2023-10-13T02:06:53;15.90;99.90
51619;DHT22;38518;53.164;5.430;2023-10-13T02:09:18;15.90;99.90
51619;DHT22;38518;53.164;5.430;2023-10-13T02:11:55;15.90;99.90
51619;DHT22;38518;53.164;5.430;2023-10-13T02:14:23;15.90;99.90
51619;DHT22;38518;53.164;5.430;2023-10-13T02:16:51;15.90;99.90
51619;DHT22;38518;53.164;5.430;2023-10-13T02:19:37;15.90;99.90
51619;DHT22;38518;53.164;5.430;2023-10-13T02:22:06;15.90;99.90
51619;DHT22;38518;53.164;5.430;2023-10-13T02:24:35;15.90;99.90
51619;DHT22;38518;53.164;5.430;2023-10-13T02:27:06;15.90;99.90
51619;DHT22;38518;53.164;5.430;2023-10-13T02:29:39;15.90;99.90
51619;DHT22;38518;53.164;5.430;2023-10-13T02:32:06;15.90;99.90
51619;DHT22;38518;53.164;5.430;2023-10-13T02:34:39;15.90;99.90
51619;DHT22;38518;53.164;5.430;2023-10-13T02:37:10;15.80;99.90
51619;DHT22;38518;53.164;5.430;2023-10-13T02:39:36;15.80;99.90
51619;DHT22;38518;53.164;5.430;2023-10-13T02:42:04;15.80;99.90
51619;DHT22;38518;53.164;5.430;2023-10-13T02:44:33;15.80;99.90
51619;DHT22;38518;53.164;5.430;2023-10-13T02:47:02;15.90;99.90
51619;DHT22;38518;53.164;5.430;2023-10-13T02:49:31;15.80;99.90
51619;DHT22;38518;53.164;5.430;2023-10-13T02:52:00;15.80;99.90
51619;DHT22;38518;53.164;5.430;2023-10-13T02:54:31;15.80;99.90
51619;DHT22;38518;53.164;5.430;2023-10-13T02:56:57;15.80;99.90
51619;DHT22;38518;53.164;5.430;2023-10-13T02:59:24;15.80;99.90
51619;DHT22;38518;53.164;5.430;2023-10-13T03:02:08;15.80;99.90
51619;DHT22;38518;53.164;5.430;2023-10-13T03:04:53;15.80;99.90
51619;DHT22;38518;53.164;5.430;2023-10-13T03:07:28;15.80;99.90
51619;DHT22;38518;53.164;5.430;2023-10-13T03:09:58;15.70;99.90
51619;DHT22;38518;53.164;5.430;2023-10-13T03:12:26;15.70;99.90
51619;DHT22;38518;53.164;5.430;2023-10-13T03:14:58;15.70;99.90
51619;DHT22;38518;53.164;5.430;2023-10-13T03:17:43;15.70;99.90
51619;DHT22;38518;53.164;5.430;2023-10-13T03:20:10;15.70;99.90
51619;DHT22;38518;53.164;5.430;2023-10-13T03:22:41;15.70;99.90
51619;DHT22;38518;53.164;5.430;2023-10-13T03:25:13;15.70;99.90
51619;DHT22;38518;53.164;5.430;2023-10-13T03:27:56;15.60;99.90
51619;DHT22;38518;53.164;5.430;2023-10-13T03:30:22;15.60;99.90
51619;DHT22;38518;53.164;5.430;2023-10-13T03:32:55;15.70;99.90
51619;DHT22;38518;53.164;5.430;2023-10-13T03:35:22;15.70;99.90
51619;DHT22;38518;53.164;5.430;2023-10-13T03:37:54;15.70;99.90
51619;DHT22;38518;53.164;5.430;2023-10-13T03:40:22;15.60;99.90
51619;DHT22;38518;53.164;5.430;2023-10-13T03:42:52;15.70;99.90
51619;DHT22;38518;53.164;5.430;2023-10-13T03:45:23;15.60;99.90
51619;DHT22;38518;53.164;5.430;2023-10-13T03:47:51;15.70;99.90
51619;DHT22;38518;53.164;5.430;2023-10-13T03:50:18;15.70;99.90
51619;DHT22;38518;53.164;5.430;2023-10-13T03:52:57;15.70;99.90
51619;DHT22;38518;53.164;5.430;2023-10-13T03:55:26;15.70;99.90
51619;DHT22;38518;53.164;5.430;2023-10-13T03:57:56;15.70;99.90
51619;DHT22;38518;53.164;5.430;2023-10-13T04:00:25;15.70;99.90
51619;DHT22;38518;53.164;5.430;2023-10-13T04:02:52;15.70;99.90
51619;DHT22;38518;53.164;5.430;2023-10-13T04:05:38;15.70;99.90
51619;DHT22;38518;53.164;5.430;2023-10-13T04:08:10;15.60;99.90
51619;DHT22;38518;53.164;5.430;2023-10-13T04:10:55;15.80;99.90
51619;DHT22;38518;53.164;5.430;2023-10-13T04:13:21;15.70;99.90
51619;DHT22;38518;53.164;5.430;2023-10-13T04:16:07;15.70;99.90
51619;DHT22;38518;53.164;5.430;2023-10-13T04:18:52;15.60;99.90
51619;DHT22;38518;53.164;5.430;2023-10-13T04:21:21;15.80;99.90
51619;DHT22;38518;53.164;5.430;2023-10-13T04:24:12;15.70;99.90
51619;DHT22;38518;53.164;5.430;2023-10-13T04:26:53;15.80;99.90
51619;DHT22;38518;53.164;5.430;2023-10-13T04:29:44;15.70;99.90
51619;DHT22;38518;53.164;5.430;2023-10-13T04:32:22;15.70;99.90
51619;DHT22;38518;53.164;5.430;2023-10-13T04:35:04;15.80;99.90
51619;DHT22;38518;53.164;5.430;2023-10-13T04:37:39;15.80;99.90
51619;DHT22;38518;53.164;5.430;2023-10-13T04:40:24;15.80;99.90
51619;DHT22;38518;53.164;5.430;2023-10-13T04:42:53;15.80;99.90
51619;DHT22;38518;53.164;5.430;2023-10-13T04:45:23;15.80;99.90
51619;DHT22;38518;53.164;5.430;2023-10-13T04:47:59;15.80;99.90
51619;DHT22;38518;53.164;5.430;2023-10-13T04:50:59;15.80;99.90
51619;DHT22;38518;53.164;5.430;2023-10-13T04:53:46;15.60;99.90
51619;DHT22;38518;53.164;5.430;2023-10-13T04:56:37;15.80;99.90
51619;DHT22;38518;53.164;5.430;2023-10-13T04:59:06;15.80;99.90
51619;DHT22;38518;53.164;5.430;2023-10-13T05:01:44;15.80;99.90
51619;DHT22;38518;53.164;5.430;2023-10-13T05:04:28;15.80;99.90
51619;DHT22;38518;53.164;5.430;2023-10-13T05:07:25;15.80;99.90
51619;DHT22;38518;53.164;5.430;2023-10-13T05:10:10;15.80;99.90
51619;DHT22;38518;53.164;5.430;2023-10-13T05:12:54;15.70;99.90
51619;DHT22;38518;53.164;5.430;2023-10-13T05:15:46;15.80;99.90
51619;DHT22;38518;53.164;5.430;2023-10-13T05:18:31;15.80;99.90
51619;DHT22;38518;53.164;5.430;2023-10-13T05:21:16;15.70;99.90
51619;DHT22;38518;53.164;5.430;2023-10-13T05:24:00;15.70;99.90
51619;DHT22;38518;53.164;5.430;2023-10-13T05:26:44;15.70;99.90
51619;DHT22;38518;53.164;5.430;2023-10-13T05:29:29;15.70;99.90
51619;DHT22;38518;53.164;5.430;2023-10-13T05:32:13;15.70;99.90
51619;DHT22;38518;53.164;5.430;2023-10-13T05:34:57;15.70;99.90
51619;DHT22;38518;53.164;5.430;2023-10-13T05:37:41;15.70;99.90
51619;DHT22;38518;53.164;5.430;2023-10-13T05:40:27;15.60;99.90
51619;DHT22;38518;53.164;5.430;2023-10-13T05:43:11;15.60;99.90
51619;DHT22;38518;53.164;5.430;2023-10-13T05:46:01;15.60;99.90
51619;DHT22;38518;53.164;5.430;2023-10-13T05:49:02;15.50;99.90
51619;DHT22;38518;53.164;5.430;2023-10-13T05:51:37;15.50;99.90
51619;DHT22;38518;53.164;5.430;2023-10-13T05:54:04;15.50;99.90
51619;DHT22;38518;53.164;5.430;2023-10-13T05:56:49;15.50;99.90
51619;DHT22;38518;53.164;5.430;2023-10-13T05:59:37;15.50;99.90
51619;DHT22;38518;53.164;5.430;2023-10-13T06:02:23;15.50;99.90
51619;DHT22;38518;53.164;5.430;2023-10-13T06:05:11;15.50;99.90
51619;DHT22;38518;53.164;5.430;2023-10-13T06:07:57;15.50;99.90
51619;DHT22;38518;53.164;5.430;2023-10-13T06:10:42;15.40;99.90
51619;DHT22;38518;53.164;5.430;2023-10-13T06:13:27;15.50;1.00
51619;DHT22;38518;53.164;5.430;2023-10-13T06:16:16;15.50;1.00
51619;DHT22;38518;53.164;5.430;2023-10-13T06:19:02;15.10;1.00
51619;DHT22;38518;53.164;5.430;2023-10-13T06:22:00;15.60;1.00
51619;DHT22;38518;53.164;5.430;2023-10-13T06:24:44;15.70;1.00
51619;DHT22;38518;53.164;5.430;2023-10-13T06:27:28;15.70;1.00
51619;DHT22;38518;53.164;5.430;2023-10-13T06:30:12;15.70;1.00
51619;DHT22;38518;53.164;5.430;2023-10-13T06:32:38;15.60;1.00
51619;DHT22;38518;53.164;5.430;2023-10-13T06:35:06;15.50;1.00
51619;DHT22;38518;53.164;5.430;2023-10-13T06:37:44;15.60;1.00
51619;DHT22;38518;53.164;5.430;2023-10-13T06:40:12;15.60;1.00
51619;DHT22;38518;53.164;5.430;2023-10-13T06:42:59;15.60;1.00
51619;DHT22;38518;53.164;5.430;2023-10-13T06:45:39;15.70;1.00
51619;DHT22;38518;53.164;5.430;2023-10-13T06:48:05;15.80;1.00
51619;DHT22;38518;53.164;5.430;2023-10-13T06:50:31;15.80;1.00
51619;DHT22;38518;53.164;5.430;2023-10-13T06:53:05;15.90;1.00
51619;DHT22;38518;53.164;5.430;2023-10-13T06:55:30;15.90;1.00
51619;DHT22;38518;53.164;5.430;2023-10-13T06:58:04;15.90;1.00
51619;DHT22;38518;53.164;5.430;2023-10-13T07:00:32;15.90;1.00
51619;DHT22;38518;53.164;5.430;2023-10-13T07:03:04;15.80;1.00
51619;DHT22;38518;53.164;5.430;2023-10-13T07:05:43;15.90;1.00
51619;DHT22;38518;53.164;5.430;2023-10-13T07:08:10;15.80;1.00
51619;DHT22;38518;53.164;5.430;2023-10-13T07:10:53;15.80;1.00
51619;DHT22;38518;53.164;5.430;2023-10-13T07:13:39;15.80;1.00
51619;DHT22;38518;53.164;5.430;2023-10-13T07:16:05;15.80;1.00
51619;DHT22;38518;53.164;5.430;2023-10-13T07:18:33;15.70;1.00
51619;DHT22;38518;53.164;5.430;2023-10-13T07:21:04;15.70;1.00
51619;DHT22;38518;53.164;5.430;2023-10-13T07:23:37;15.70;1.00
51619;DHT22;38518;53.164;5.430;2023-10-13T07:26:04;15.70;1.00
51619;DHT22;38518;53.164;5.430;2023-10-13T07:28:32;16.80;95.50
51619;DHT22;38518;53.164;5.430;2023-10-13T07:31:04;15.60;1.00
51619;DHT22;38518;53.164;5.430;2023-10-13T07:33:30;15.50;1.00
51619;DHT22;38518;53.164;5.430;2023-10-13T07:36:05;15.50;21.90
51619;DHT22;38518;53.164;5.430;2023-10-13T07:38:53;15.50;1.00
51619;DHT22;38518;53.164;5.430;2023-10-13T07:41:48;15.50;19.10
51619;DHT22;38518;53.164;5.430;2023-10-13T07:44:21;15.50;1.00
51619;DHT22;38518;53.164;5.430;2023-10-13T07:47:00;15.40;1.00
51619;DHT22;38518;53.164;5.430;2023-10-13T07:49:30;15.40;1.00
51619;DHT22;38518;53.164;5.430;2023-10-13T07:52:00;15.50;1.00
51619;DHT22;38518;53.164;5.430;2023-10-13T07:54:44;15.50;1.00
51619;DHT22;38518;53.164;5.430;2023-10-13T07:57:13;15.50;1.00
51619;DHT22;38518;53.164;5.430;2023-10-13T07:59:41;15.50;1.00
51619;DHT22;38518;53.164;5.430;2023-10-13T08:02:14;15.60;1.00
51619;DHT22;38518;53.164;5.430;2023-10-13T08:04:59;15.60;1.00
51619;DHT22;38518;53.164;5.430;2023-10-13T08:07:25;15.60;74.40
51619;DHT22;38518;53.164;5.430;2023-10-13T08:09:54;15.60;71.80
51619;DHT22;38518;53.164;5.430;2023-10-13T08:12:23;15.70;71.30
51619;DHT22;38518;53.164;5.430;2023-10-13T08:14:54;15.70;72.70
51619;DHT22;38518;53.164;5.430;2023-10-13T08:17:37;15.70;73.20
51619;DHT22;38518;53.164;5.430;2023-10-13T08:20:03;15.80;62.60
51619;DHT22;38518;53.164;5.430;2023-10-13T08:22:38;15.80;56.10
51619;DHT22;38518;53.164;5.430;2023-10-13T08:25:04;15.80;46.20
51619;DHT22;38518;53.164;5.430;2023-10-13T08:27:48;15.80;34.10
51619;DHT22;38518;53.164;5.430;2023-10-13T08:30:16;15.80;26.00
51619;DHT22;38518;53.164;5.430;2023-10-13T08:33:08;15.90;43.70
51619;DHT22;38518;53.164;5.430;2023-10-13T08:35:43;15.90;23.80
51619;DHT22;38518;53.164;5.430;2023-10-13T08:38:38;16.00;1.50
51619;DHT22;38518;53.164;5.430;2023-10-13T08:41:22;16.00;4.20
51619;DHT22;38518;53.164;5.430;2023-10-13T08:43:50;16.10;4.60
51619;DHT22;38518;53.164;5.430;2023-10-13T08:46:17;16.10;7.40
51619;DHT22;38518;53.164;5.430;2023-10-13T08:48:59;16.20;14.20
51619;DHT22;38518;53.164;5.430;2023-10-13T08:51:53;16.30;11.80
51619;DHT22;38518;53.164;5.430;2023-10-13T08:54:36;16.30;1.00
51619;DHT22;38518;53.164;5.430;2023-10-13T08:57:05;16.40;1.00
51619;DHT22;38518;53.164;5.430;2023-10-13T08:59:51;16.40;1.00
51619;DHT22;38518;53.164;5.430;2023-10-13T09:02:23;16.50;1.00
51619;DHT22;38518;53.164;5.430;2023-10-13T09:05:09;16.60;1.00
51619;DHT22;38518;53.164;5.430;2023-10-13T09:07:55;17.20;1.00
51619;DHT22;38518;53.164;5.430;2023-10-13T09:10:24;16.80;1.00
51619;DHT22;38518;53.164;5.430;2023-10-13T09:12:58;16.90;1.00
51619;DHT22;38518;53.164;5.430;2023-10-13T09:15:29;16.90;1.00
51619;DHT22;38518;53.164;5.430;2023-10-13T09:18:25;17.00;1.00
51619;DHT22;38518;53.164;5.430;2023-10-13T09:21:08;17.00;1.00
51619;DHT22;38518;53.164;5.430;2023-10-13T09:24:00;17.10;1.00
51619;DHT22;38518;53.164;5.430;2023-10-13T09:27:04;17.10;1.00
51619;DHT22;38518;53.164;5.430;2023-10-13T09:29:30;17.10;1.00
51619;DHT22;38518;53.164;5.430;2023-10-13T09:32:04;17.10;1.00
51619;DHT22;38518;53.164;5.430;2023-10-13T09:34:31;17.10;1.00
51619;DHT22;38518;53.164;5.430;2023-10-13T09:37:00;17.10;1.00
51619;DHT22;38518;53.164;5.430;2023-10-13T09:39:28;17.10;1.00
51619;DHT22;38518;53.164;5.430;2023-10-13T09:42:18;17.20;1.00
51619;DHT22;38518;53.164;5.430;2023-10-13T09:44:45;17.20;1.00
51619;DHT22;38518;53.164;5.430;2023-10-13T09:47:21;17.20;1.00
51619;DHT22;38518;53.164;5.430;2023-10-13T09:49:59;17.20;1.00
51619;DHT22;38518;53.164;5.430;2023-10-13T09:52:29;17.20;1.00
51619;DHT22;38518;53.164;5.430;2023-10-13T09:55:10;17.20;1.00
51619;DHT22;38518;53.164;5.430;2023-10-13T09:57:43;17.30;1.00
51619;DHT22;38518;53.164;5.430;2023-10-13T10:00:17;17.40;1.00
51619;DHT22;38518;53.164;5.430;2023-10-13T10:03:05;17.40;1.00
51619;DHT22;38518;53.164;5.430;2023-10-13T10:05:42;17.50;1.00
51619;DHT22;38518;53.164;5.430;2023-10-13T10:08:23;17.40;1.00
51619;DHT22;38518;53.164;5.430;2023-10-13T10:11:04;17.70;1.00
51619;DHT22;38518;53.164;5.430;2023-10-13T10:13:53;17.70;1.00
51619;DHT22;38518;53.164;5.430;2023-10-13T10:16:43;17.70;1.00
51619;DHT22;38518;53.164;5.430;2023-10-13T10:19:12;17.70;1.00
51619;DHT22;38518;53.164;5.430;2023-10-13T10:21:38;17.80;1.00
51619;DHT22;38518;53.164;5.430;2023-10-13T10:24:21;17.80;1.00
51619;DHT22;38518;53.164;5.430;2023-10-13T10:26:55;17.30;1.00
51619;DHT22;38518;53.164;5.430;2023-10-13T10:29:22;17.90;1.00
51619;DHT22;38518;53.164;5.430;2023-10-13T10:31:48;18.00;1.00
51619;DHT22;38518;53.164;5.430;2023-10-13T10:34:15;18.00;1.00
51619;DHT22;38518;53.164;5.430;2023-10-13T10:36:47;18.00;1.00
51619;DHT22;38518;53.164;5.430;2023-10-13T10:39:13;18.10;1.00
51619;DHT22;38518;53.164;5.430;2023-10-13T10:41:40;18.10;1.00
51619;DHT22;38518;53.164;5.430;2023-10-13T10:44:13;18.10;99.90
51619;DHT22;38518;53.164;5.430;2023-10-13T10:46:44;18.10;99.90
51619;DHT22;38518;53.164;5.430;2023-10-13T10:49:26;18.10;99.90
51619;DHT22;38518;53.164;5.430;2023-10-13T10:51:59;17.40;99.90
51619;DHT22;38518;53.164;5.430;2023-10-13T10:54:30;18.10;99.90
51619;DHT22;38518;53.164;5.430;2023-10-13T10:56:59;18.20;99.90
51619;DHT22;38518;53.164;5.430;2023-10-13T10:59:38;18.30;99.90
51619;DHT22;38518;53.164;5.430;2023-10-13T11:02:05;18.30;99.90
51619;DHT22;38518;53.164;5.430;2023-10-13T11:04:32;18.30;99.90
51619;DHT22;38518;53.164;5.430;2023-10-13T11:07:07;18.30;99.90
51619;DHT22;38518;53.164;5.430;2023-10-13T11:09:35;18.20;99.90
51619;DHT22;38518;53.164;5.430;2023-10-13T11:12:11;18.30;99.90
51619;DHT22;38518;53.164;5.430;2023-10-13T11:14:44;18.30;99.90
51619;DHT22;38518;53.164;5.430;2023-10-13T11:17:22;18.40;99.90
51619;DHT22;38518;53.164;5.430;2023-10-13T11:19:54;18.30;99.90
51619;DHT22;38518;53.164;5.430;2023-10-13T11:22:22;18.90;99.90
51619;DHT22;38518;53.164;5.430;2023-10-13T11:25:08;18.30;99.90
51619;DHT22;38518;53.164;5.430;2023-10-13T11:27:38;18.20;99.90
51619;DHT22;38518;53.164;5.430;2023-10-13T11:30:13;18.00;99.90
51619;DHT22;38518;53.164;5.430;2023-10-13T11:33:05;17.70;99.90
51619;DHT22;38518;53.164;5.430;2023-10-13T11:35:32;17.40;99.90
51619;DHT22;38518;53.164;5.430;2023-10-13T11:38:17;17.00;99.90
51619;DHT22;38518;53.164;5.430;2023-10-13T11:43:31;16.60;99.90
51619;DHT22;38518;53.164;5.430;2023-10-13T11:46:12;16.60;99.90
51619;DHT22;38518;53.164;5.430;2023-10-13T11:48:44;16.60;99.90
51619;DHT22;38518;53.164;5.430;2023-10-13T11:51:13;16.60;99.90
51619;DHT22;38518;53.164;5.430;2023-10-13T11:54:05;16.60;99.90
51619;DHT22;38518;53.164;5.430;2023-10-13T11:56:31;16.60;99.90
51619;DHT22;38518;53.164;5.430;2023-10-13T11:58:57;16.60;99.90
51619;DHT22;38518;53.164;5.430;2023-10-13T12:01:27;16.60;99.90
51619;DHT22;38518;53.164;5.430;2023-10-13T12:04:13;16.60;99.90
51619;DHT22;38518;53.164;5.430;2023-10-13T12:06:57;16.60;99.90
51619;DHT22;38518;53.164;5.430;2023-10-13T12:09:49;16.60;1.00
51619;DHT22;38518;53.164;5.430;2023-10-13T12:12:29;16.60;1.00
51619;DHT22;38518;53.164;5.430;2023-10-13T12:15:06;16.60;1.00
51619;DHT22;38518;53.164;5.430;2023-10-13T12:17:35;16.60;1.00
51619;DHT22;38518;53.164;5.430;2023-10-13T12:20:05;16.60;1.00
51619;DHT22;38518;53.164;5.430;2023-10-13T12:22:35;16.50;1.00
51619;DHT22;38518;53.164;5.430;2023-10-13T12:25:01;16.50;1.00
51619;DHT22;38518;53.164;5.430;2023-10-13T12:27:31;16.50;1.00
51619;DHT22;38518;53.164;5.430;2023-10-13T12:30:14;16.50;1.00
51619;DHT22;38518;53.164;5.430;2023-10-13T12:32:49;16.50;1.00
51619;DHT22;38518;53.164;5.430;2023-10-13T12:35:32;16.50;1.00
51619;DHT22;38518;53.164;5.430;2023-10-13T12:38:03;16.50;1.00
51619;DHT22;38518;53.164;5.430;2023-10-13T12:40:42;16.50;1.00
51619;DHT22;38518;53.164;5.430;2023-10-13T12:43:26;16.50;1.00
51619;DHT22;38518;53.164;5.430;2023-10-13T12:46:10;16.50;1.00
51619;DHT22;38518;53.164;5.430;2023-10-13T12:48:54;16.60;1.00
51619;DHT22;38518;53.164;5.430;2023-10-13T12:51:38;16.60;1.00
51619;DHT22;38518;53.164;5.430;2023-10-13T12:54:04;16.70;1.00
51619;DHT22;38518;53.164;5.430;2023-10-13T12:56:32;16.70;1.00
51619;DHT22;38518;53.164;5.430;2023-10-13T12:58:58;16.70;1.00
51619;DHT22;38518;53.164;5.430;2023-10-13T13:01:25;16.70;1.00
51619;DHT22;38518;53.164;5.430;2023-10-13T13:03:54;16.70;1.00
51619;DHT22;38518;53.164;5.430;2023-10-13T13:06:25;16.70;1.00
51619;DHT22;38518;53.164;5.430;2023-10-13T13:08:58;16.70;1.00
51619;DHT22;38518;53.164;5.430;2023-10-13T13:11:24;16.70;25.50
51619;DHT22;38518;53.164;5.430;2023-10-13T13:13:50;16.70;22.00
51619;DHT22;38518;53.164;5.430;2023-10-13T13:16:18;16.80;18.50
51619;DHT22;38518;53.164;5.430;2023-10-13T13:18:52;16.80;22.50
51619;DHT22;38518;53.164;5.430;2023-10-13T13:21:21;16.80;28.70
51619;DHT22;38518;53.164;5.430;2023-10-13T13:23:50;16.90;48.10
51619;DHT22;38518;53.164;5.430;2023-10-13T13:26:16;16.90;28.30
51619;DHT22;38518;53.164;5.430;2023-10-13T13:28:47;16.90;7.30
51619;DHT22;38518;53.164;5.430;2023-10-13T13:31:16;17.00;7.80
51619;DHT22;38518;53.164;5.430;2023-10-13T13:33:42;16.90;1.00
51619;DHT22;38518;53.164;5.430;2023-10-13T13:36:10;17.00;4.20
51619;DHT22;38518;53.164;5.430;2023-10-13T13:38:41;17.00;18.80
51619;DHT22;38518;53.164;5.430;2023-10-13T13:41:13;17.10;20.70
51619;DHT22;38518;53.164;5.430;2023-10-13T13:43:46;17.10;6.70
51619;DHT22;38518;53.164;5.430;2023-10-13T13:46:18;17.20;21.90
51619;DHT22;38518;53.164;5.430;2023-10-13T13:48:45;17.30;1.00
51619;DHT22;38518;53.164;5.430;2023-10-13T13:51:13;17.30;5.30
51619;DHT22;38518;53.164;5.430;2023-10-13T13:53:52;17.30;1.00
51619;DHT22;38518;53.164;5.430;2023-10-13T13:56:18;17.50;2.90
51619;DHT22;38518;53.164;5.430;2023-10-13T13:58:48;17.60;1.00
51619;DHT22;38518;53.164;5.430;2023-10-13T14:01:15;17.70;1.00
51619;DHT22;38518;53.164;5.430;2023-10-13T14:03:45;17.70;1.00
51619;DHT22;38518;53.164;5.430;2023-10-13T14:06:13;17.80;1.00
51619;DHT22;38518;53.164;5.430;2023-10-13T14:08:49;18.00;1.00
51619;DHT22;38518;53.164;5.430;2023-10-13T14:11:18;18.00;1.00
51619;DHT22;38518;53.164;5.430;2023-10-13T14:14:16;18.20;1.00
51619;DHT22;38518;53.164;5.430;2023-10-13T14:16:52;18.20;1.00
51619;DHT22;38518;53.164;5.430;2023-10-13T14:19:19;18.20;1.00
51619;DHT22;38518;53.164;5.430;2023-10-13T14:21:58;18.10;1.00
51619;DHT22;38518;53.164;5.430;2023-10-13T14:24:24;18.00;99.90
51619;DHT22;38518;53.164;5.430;2023-10-13T14:26:58;18.00;99.90
51619;DHT22;38518;53.164;5.430;2023-10-13T14:29:43;18.00;99.90
51619;DHT22;38518;53.164;5.430;2023-10-13T14:32:10;18.00;99.90
51619;DHT22;38518;53.164;5.430;2023-10-13T14:34:44;18.10;99.90
51619;DHT22;38518;53.164;5.430;2023-10-13T14:37:10;18.10;99.90
51619;DHT22;38518;53.164;5.430;2023-10-13T14:39:42;18.10;99.90
51619;DHT22;38518;53.164;5.430;2023-10-13T14:42:08;18.10;99.90
51619;DHT22;38518;53.164;5.430;2023-10-13T14:44:34;18.10;99.90
51619;DHT22;38518;53.164;5.430;2023-10-13T14:47:01;18.20;99.90
51619;DHT22;38518;53.164;5.430;2023-10-13T14:49:27;18.20;99.90
51619;DHT22;38518;53.164;5.430;2023-10-13T14:51:53;18.20;99.90
51619;DHT22;38518;53.164;5.430;2023-10-13T14:54:21;18.10;99.90
51619;DHT22;38518;53.164;5.430;2023-10-13T14:57:02;18.10;99.90
51619;DHT22;38518;53.164;5.430;2023-10-13T14:59:28;18.10;99.90
51619;DHT22;38518;53.164;5.430;2023-10-13T15:01:59;18.10;99.90
51619;DHT22;38518;53.164;5.430;2023-10-13T15:04:27;18.20;99.90
51619;DHT22;38518;53.164;5.430;2023-10-13T15:06:54;18.20;99.90
51619;DHT22;38518;53.164;5.430;2023-10-13T15:09:20;18.20;99.90
51619;DHT22;38518;53.164;5.430;2023-10-13T15:11:49;18.20;99.90
51619;DHT22;38518;53.164;5.430;2023-10-13T15:14:20;18.20;99.90
51619;DHT22;38518;53.164;5.430;2023-10-13T15:16:46;18.20;99.90
51619;DHT22;38518;53.164;5.430;2023-10-13T15:19:12;18.20;99.90
51619;DHT22;38518;53.164;5.430;2023-10-13T15:21:38;18.10;99.90
51619;DHT22;38518;53.164;5.430;2023-10-13T15:24:06;18.10;99.90
51619;DHT22;38518;53.164;5.430;2023-10-13T15:26:51;18.10;99.90
51619;DHT22;38518;53.164;5.430;2023-10-13T15:29:22;18.10;99.90
51619;DHT22;38518;53.164;5.430;2023-10-13T15:31:52;18.10;99.90
51619;DHT22;38518;53.164;5.430;2023-10-13T15:34:24;18.10;99.90
51619;DHT22;38518;53.164;5.430;2023-10-13T15:36:52;18.10;99.90
51619;DHT22;38518;53.164;5.430;2023-10-13T15:39:21;18.10;99.90
51619;DHT22;38518;53.164;5.430;2023-10-13T15:41:51;18.00;99.90
51619;DHT22;38518;53.164;5.430;2023-10-13T15:44:20;18.00;99.90
51619;DHT22;38518;53.164;5.430;2023-10-13T15:46:47;18.10;99.90
51619;DHT22;38518;53.164;5.430;2023-10-13T15:49:17;18.10;99.90
51619;DHT22;38518;53.164;5.430;2023-10-13T15:51:43;18.10;99.90
51619;DHT22;38518;53.164;5.430;2023-10-13T15:54:09;18.00;99.90
51619;DHT22;38518;53.164;5.430;2023-10-13T15:56:45;18.00;99.90
51619;DHT22;38518;53.164;5.430;2023-10-13T15:59:11;18.00;99.90
51619;DHT22;38518;53.164;5.430;2023-10-13T16:01:37;18.00;99.90
51619;DHT22;38518;53.164;5.430;2023-10-13T16:04:09;18.00;99.90
51619;DHT22;38518;53.164;5.430;2023-10-13T16:06:45;18.00;99.90
51619;DHT22;38518;53.164;5.430;2023-10-13T16:09:16;18.00;99.90
51619;DHT22;38518;53.164;5.430;2023-10-13T16:11:52;17.80;99.90
51619;DHT22;38518;53.164;5.430;2023-10-13T16:14:18;18.00;99.90
51619;DHT22;38518;53.164;5.430;2023-10-13T16:16:53;18.00;99.90
51619;DHT22;38518;53.164;5.430;2023-10-13T16:19:20;17.90;99.90
51619;DHT22;38518;53.164;5.430;2023-10-13T16:21:53;17.90;99.90
51619;DHT22;38518;53.164;5.430;2023-10-13T16:24:19;17.80;99.90
51619;DHT22;38518;53.164;5.430;2023-10-13T16:26:50;17.80;99.90